Time;durP1;ratioP1;P1;durP2;ratioP2;P2;SDS_P1;SDS_P2;PMS_P1;PMS_P2;Temp;Humidity;BMP_temperature;BMP_pressure;BME280_temperature;BME280_humidity;BME280_pressure;Samples;Min_cycle;Max_cycle;Signal;HPM_P1;HPM_P2
2022/05/06 00:00:35;;;;;;;;;;;17.40;57.00;;;;;;2045582;28;19912;-70
2022/05/06 00:01:34;;;;;;;;;;;17.40;57.00;;;;;;2045697;28;19904;-71
2022/05/06 00:02:33;;;;;;;;;;;17.40;57.00;;;;;;2039001;28;19904;-70
2022/05/06 00:03:31;;;;;;;;;;;17.40;57.00;;;;;;2038261;28;19904;-71
2022/05/06 00:04:30;;;;;;;;;;;17.40;57.00;;;;;;2038461;28;20416;-71
2022/05/06 00:05:30;;;;;;;;;;;17.40;57.00;;;;;;2040290;28;19995;-71
2022/05/06 00:06:29;;;;;;;;;;;17.40;57.00;;;;;;2044595;28;19904;-72
2022/05/06 00:07:28;;;;;;;;;;;17.40;57.00;;;;;;2045120;28;19943;-71
2022/05/06 00:08:26;;;;;;;;;;;17.40;57.00;;;;;;2046514;28;19926;-71
2022/05/06 00:09:24;;;;;;;;;;;17.40;57.00;;;;;;2046433;28;19904;-71
2022/05/06 00:10:23;;;;;;;;;;;17.40;57.00;;;;;;2046317;28;19904;-71
2022/05/06 00:11:22;;;;;;;;;;;17.40;57.00;;;;;;2046520;28;19939;-71
2022/05/06 00:12:20;;;;;;;;;;;17.40;57.00;;;;;;2046632;28;19895;-70
2022/05/06 00:13:19;;;;;;;;;;;17.40;57.00;;;;;;2047042;28;19892;-71
2022/05/06 00:14:20;;;;;;;;;;;17.40;57.00;;;;;;2046497;28;19915;-72
2022/05/06 00:15:18;;;;;;;;;;;17.40;57.00;;;;;;2047019;28;19896;-72
2022/05/06 00:16:18;;;;;;;;;;;17.40;57.00;;;;;;2046903;28;19904;-70
2022/05/06 00:17:18;;;;;;;;;;;17.40;57.00;;;;;;2046808;28;19896;-71
2022/05/06 00:18:18;;;;;;;;;;;17.40;57.00;;;;;;2046940;28;19892;-70
2022/05/06 00:19:16;;;;;;;;;;;17.40;57.00;;;;;;2046443;28;19914;-72
2022/05/06 00:20:15;;;;;;;;;;;17.40;57.00;;;;;;2047419;28;19915;-72
2022/05/06 00:21:13;;;;;;;;;;;17.40;57.00;;;;;;2047155;28;19903;-72
2022/05/06 00:22:12;;;;;;;;;;;17.40;57.00;;;;;;2046653;28;19914;-71
2022/05/06 00:23:10;;;;;;;;;;;17.40;57.00;;;;;;2047564;28;19942;-72
2022/05/06 00:24:09;;;;;;;;;;;17.40;57.00;;;;;;2047753;28;19951;-72
2022/05/06 00:25:08;;;;;;;;;;;17.30;57.00;;;;;;2047666;28;19916;-72
2022/05/06 00:26:07;;;;;;;;;;;17.30;57.00;;;;;;2047628;28;19941;-71
2022/05/06 00:27:06;;;;;;;;;;;17.30;57.00;;;;;;2047125;28;19916;-71
2022/05/06 00:28:05;;;;;;;;;;;17.30;57.00;;;;;;2047381;28;19904;-71
2022/05/06 00:29:04;;;;;;;;;;;17.40;57.00;;;;;;2047413;28;19904;-71
2022/05/06 00:30:03;;;;;;;;;;;17.40;57.10;;;;;;2047173;28;19899;-72
2022/05/06 00:31:02;;;;;;;;;;;17.30;57.00;;;;;;2047331;28;19903;-71
2022/05/06 00:32:02;;;;;;;;;;;17.30;57.00;;;;;;2047734;28;19899;-72
2022/05/06 00:33:00;;;;;;;;;;;17.40;57.10;;;;;;2047342;28;19915;-72
2022/05/06 00:33:59;;;;;;;;;;;17.40;57.10;;;;;;2047474;28;19892;-72
2022/05/06 00:34:57;;;;;;;;;;;17.30;57.00;;;;;;2047408;28;19929;-72
2022/05/06 00:35:56;;;;;;;;;;;17.30;57.00;;;;;;2046501;28;19907;-71
2022/05/06 00:36:57;;;;;;;;;;;17.30;57.00;;;;;;2046821;28;19919;-72
2022/05/06 00:37:56;;;;;;;;;;;17.30;57.00;;;;;;2046991;28;19903;-71
2022/05/06 00:38:54;;;;;;;;;;;17.40;57.10;;;;;;2046600;28;19911;-70
2022/05/06 00:39:53;;;;;;;;;;;17.30;57.00;;;;;;2046230;28;19904;-71
2022/05/06 00:40:52;;;;;;;;;;;17.30;57.00;;;;;;2047150;28;19903;-72
2022/05/06 00:41:54;;;;;;;;;;;17.30;57.10;;;;;;2047215;28;19892;-72
2022/05/06 00:42:52;;;;;;;;;;;17.30;57.00;;;;;;2047168;28;19904;-72
2022/05/06 00:43:50;;;;;;;;;;;17.30;57.00;;;;;;2047254;28;19892;-72
2022/05/06 00:44:49;;;;;;;;;;;17.30;57.00;;;;;;2047017;28;19904;-72
2022/05/06 00:45:48;;;;;;;;;;;17.30;57.00;;;;;;2046690;28;19903;-71
2022/05/06 00:46:47;;;;;;;;;;;17.30;57.00;;;;;;2046937;28;19962;-71
2022/05/06 00:47:47;;;;;;;;;;;17.30;57.00;;;;;;2047292;28;19956;-72
2022/05/06 00:48:46;;;;;;;;;;;17.30;57.00;;;;;;2047284;28;19961;-72
2022/05/06 00:49:45;;;;;;;;;;;17.30;57.00;;;;;;2047282;28;19892;-71
2022/05/06 00:50:44;;;;;;;;;;;17.30;57.00;;;;;;2046713;28;19970;-71
2022/05/06 00:51:42;;;;;;;;;;;17.30;57.00;;;;;;2047208;28;19916;-71
2022/05/06 00:52:41;;;;;;;;;;;17.30;57.00;;;;;;2047138;28;19911;-71
2022/05/06 00:53:40;;;;;;;;;;;17.30;57.10;;;;;;2047012;28;19904;-70
2022/05/06 00:54:39;;;;;;;;;;;17.30;57.10;;;;;;2046638;28;19904;-71
2022/05/06 00:55:38;;;;;;;;;;;17.30;57.00;;;;;;2046633;28;19904;-71
2022/05/06 00:56:37;;;;;;;;;;;17.30;57.10;;;;;;2046523;28;19971;-71
2022/05/06 00:57:36;;;;;;;;;;;17.30;57.00;;;;;;2046656;28;19919;-71
2022/05/06 00:58:34;;;;;;;;;;;17.30;57.10;;;;;;2046465;28;19952;-71
2022/05/06 00:59:33;;;;;;;;;;;17.30;57.00;;;;;;2046165;28;19904;-72
2022/05/06 01:00:32;;;;;;;;;;;17.30;57.00;;;;;;2046242;28;19915;-71
2022/05/06 01:01:30;;;;;;;;;;;17.30;57.10;;;;;;2042645;28;19949;-72
2022/05/06 01:02:29;;;;;;;;;;;17.30;57.10;;;;;;2039485;28;19904;-70
2022/05/06 01:03:27;;;;;;;;;;;17.30;57.00;;;;;;2039377;28;20418;-70
2022/05/06 01:04:25;;;;;;;;;;;17.30;57.10;;;;;;2039246;28;19908;-71
2022/05/06 01:05:25;;;;;;;;;;;17.30;57.10;;;;;;2038996;28;19911;-70
2022/05/06 01:06:24;;;;;;;;;;;17.30;57.10;;;;;;2039054;28;19991;-71
2022/05/06 01:07:23;;;;;;;;;;;17.30;57.10;;;;;;2039075;28;20265;-71
2022/05/06 01:08:21;;;;;;;;;;;17.30;57.10;;;;;;2038839;28;19973;-71
2022/05/06 01:09:24;;;;;;;;;;;17.30;57.10;;;;;;2038928;28;19942;-71
2022/05/06 01:10:23;;;;;;;;;;;17.30;57.10;;;;;;2039311;28;20321;-70
2022/05/06 01:11:21;;;;;;;;;;;17.30;57.10;;;;;;2039290;28;19962;-72
2022/05/06 01:12:20;;;;;;;;;;;17.30;57.10;;;;;;2039079;28;19904;-72
2022/05/06 01:13:18;;;;;;;;;;;17.30;57.10;;;;;;2038908;28;19911;-71
2022/05/06 01:14:30;;;;;;;;;;;17.30;57.10;;;;;;2039059;28;20006;-70
2022/05/06 01:15:29;;;;;;;;;;;17.30;57.10;;;;;;2046417;28;19999;-72
2022/05/06 01:16:34;;;;;;;;;;;17.30;57.10;;;;;;2045732;28;19904;-71
2022/05/06 01:17:33;;;;;;;;;;;17.30;57.10;;;;;;2038165;28;19908;-72
2022/05/06 01:18:31;;;;;;;;;;;17.30;57.10;;;;;;2037683;28;19911;-71
2022/05/06 01:19:29;;;;;;;;;;;17.30;57.10;;;;;;2038009;28;20275;-71
2022/05/06 01:20:28;;;;;;;;;;;17.30;57.10;;;;;;2037886;28;19908;-70
2022/05/06 01:21:32;;;;;;;;;;;17.30;57.10;;;;;;2037810;28;20328;-71
2022/05/06 01:22:31;;;;;;;;;;;17.30;57.10;;;;;;2037993;28;19904;-71
2022/05/06 01:23:30;;;;;;;;;;;17.30;57.10;;;;;;2037945;28;19911;-70
2022/05/06 01:24:28;;;;;;;;;;;17.30;57.10;;;;;;2037849;28;20333;-71
2022/05/06 01:25:27;;;;;;;;;;;17.30;57.10;;;;;;2037872;28;19904;-72
2022/05/06 01:26:46;;;;;;;;;;;17.30;57.10;;;;;;2037661;28;19951;-71
2022/05/06 01:27:47;;;;;;;;;;;17.30;57.10;;;;;;2037938;28;19943;-71
2022/05/06 01:28:45;;;;;;;;;;;17.20;57.00;;;;;;2037968;28;19953;-71
2022/05/06 01:29:45;;;;;;;;;;;17.30;57.10;;;;;;2036999;28;19908;-71
2022/05/06 01:30:47;;;;;;;;;;;17.30;57.20;;;;;;2028949;28;19927;-71
2022/05/06 01:31:45;;;;;;;;;;;17.30;57.10;;;;;;2037144;28;19904;-71
2022/05/06 01:32:44;;;;;;;;;;;17.40;57.20;;;;;;2037273;28;19908;-71
2022/05/06 01:33:43;;;;;;;;;;;17.30;57.10;;;;;;2037230;28;19910;-71
2022/05/06 01:34:42;;;;;;;;;;;17.30;57.10;;;;;;2037525;28;19908;-71
2022/05/06 01:35:41;;;;;;;;;;;17.30;57.10;;;;;;2037087;28;19908;-71
2022/05/06 01:36:40;;;;;;;;;;;17.30;57.10;;;;;;2036963;28;19904;-70
2022/05/06 01:37:40;;;;;;;;;;;17.30;57.10;;;;;;2037690;28;19904;-70
2022/05/06 01:38:46;;;;;;;;;;;17.30;57.10;;;;;;2037505;28;20263;-70
2022/05/06 01:39:48;;;;;;;;;;;17.30;57.10;;;;;;2037592;28;19904;-71
2022/05/06 01:40:56;;;;;;;;;;;17.30;57.10;;;;;;2037705;28;19904;-71
2022/05/06 01:41:58;;;;;;;;;;;17.30;57.10;;;;;;2037678;28;19904;-72
2022/05/06 01:42:58;;;;;;;;;;;17.30;57.20;;;;;;2037736;28;20398;-71
2022/05/06 01:43:59;;;;;;;;;;;17.30;57.10;;;;;;2037557;28;20351;-72
2022/05/06 01:44:59;;;;;;;;;;;17.20;57.00;;;;;;2037587;28;20282;-70
2022/05/06 01:45:58;;;;;;;;;;;17.30;57.10;;;;;;2037400;28;19910;-71
2022/05/06 01:46:58;;;;;;;;;;;17.20;57.10;;;;;;2036821;28;19915;-71
2022/05/06 01:47:57;;;;;;;;;;;17.20;57.10;;;;;;2036849;28;19908;-71
2022/05/06 01:48:56;;;;;;;;;;;17.30;57.20;;;;;;2037519;28;19927;-71
2022/05/06 01:49:56;;;;;;;;;;;17.20;57.10;;;;;;2037513;28;19971;-73
2022/05/06 01:50:54;;;;;;;;;;;17.20;57.10;;;;;;2037438;28;19911;-70
2022/05/06 01:51:53;;;;;;;;;;;17.20;57.10;;;;;;2037737;28;19958;-72
2022/05/06 01:52:51;;;;;;;;;;;17.20;57.10;;;;;;2037469;28;19958;-70
2022/05/06 01:53:52;;;;;;;;;;;17.20;57.10;;;;;;2037473;28;20355;-71
2022/05/06 01:54:50;;;;;;;;;;;17.20;57.10;;;;;;2037643;28;19904;-70
2022/05/06 01:55:50;;;;;;;;;;;17.30;57.80;;;;;;2037418;28;20323;-72
2022/05/06 01:56:49;;;;;;;;;;;17.30;57.20;;;;;;2037495;28;19904;-71
2022/05/06 01:57:47;;;;;;;;;;;17.20;57.20;;;;;;2037673;28;19911;-70
2022/05/06 01:58:47;;;;;;;;;;;17.20;57.20;;;;;;2037603;28;20263;-72
2022/05/06 01:59:46;;;;;;;;;;;17.20;57.10;;;;;;2037389;28;20362;-70
2022/05/06 02:00:44;;;;;;;;;;;17.20;57.20;;;;;;2037476;28;19904;-72
2022/05/06 02:01:42;;;;;;;;;;;17.20;57.20;;;;;;2037503;28;19961;-70
2022/05/06 02:02:41;;;;;;;;;;;17.30;57.20;;;;;;2037466;28;19910;-71
2022/05/06 02:06:13;;;;;;;;;;;17.20;57.20;;;;;;2040905;28;19904;-71
2022/05/06 02:07:12;;;;;;;;;;;17.20;57.20;;;;;;2045070;28;20382;-71
2022/05/06 02:08:11;;;;;;;;;;;17.20;57.20;;;;;;2044651;28;19922;-71
2022/05/06 02:09:11;;;;;;;;;;;17.20;57.20;;;;;;2037701;28;19908;-70
2022/05/06 02:10:09;;;;;;;;;;;17.20;57.20;;;;;;2037408;28;19904;-71
2022/05/06 02:11:08;;;;;;;;;;;17.20;57.20;;;;;;2037232;28;19904;-70
2022/05/06 02:12:07;;;;;;;;;;;17.20;57.20;;;;;;2037373;28;19928;-71
2022/05/06 02:13:05;;;;;;;;;;;17.20;57.20;;;;;;2037237;28;20036;-71
2022/05/06 02:14:04;;;;;;;;;;;17.20;57.20;;;;;;2037453;28;19910;-71
2022/05/06 02:15:02;;;;;;;;;;;17.20;57.20;;;;;;2037422;28;19911;-70
2022/05/06 02:16:02;;;;;;;;;;;17.20;57.20;;;;;;2037306;28;19908;-71
2022/05/06 02:17:00;;;;;;;;;;;17.30;57.30;;;;;;2037176;28;19920;-71
2022/05/06 02:17:59;;;;;;;;;;;17.20;57.20;;;;;;2037294;28;19904;-71
2022/05/06 02:18:57;;;;;;;;;;;17.20;57.20;;;;;;2037402;28;19911;-71
2022/05/06 02:19:56;;;;;;;;;;;17.20;57.20;;;;;;2037560;28;19955;-71
2022/05/06 02:20:55;;;;;;;;;;;17.20;57.20;;;;;;2037252;28;19904;-71
2022/05/06 02:21:53;;;;;;;;;;;17.20;57.20;;;;;;2037384;28;19967;-71
2022/05/06 02:22:51;;;;;;;;;;;17.30;57.30;;;;;;2037432;28;19930;-70
2022/05/06 02:23:50;;;;;;;;;;;17.20;57.20;;;;;;2044917;28;20267;-71
2022/05/06 02:24:48;;;;;;;;;;;17.20;57.20;;;;;;2044771;28;19907;-70
2022/05/06 02:25:47;;;;;;;;;;;17.20;57.20;;;;;;2037744;28;19966;-71
2022/05/06 02:26:46;;;;;;;;;;;17.20;57.20;;;;;;2037251;28;20003;-70
2022/05/06 02:27:44;;;;;;;;;;;17.20;57.20;;;;;;2037275;28;20394;-72
2022/05/06 02:28:43;;;;;;;;;;;17.20;57.20;;;;;;2037386;28;20021;-71
2022/05/06 02:33:12;;;;;;;;;;;17.20;57.20;;;;;;2037068;28;19927;-70
2022/05/06 02:33:54;;;;;;;;;;;17.20;57.30;;;;;;2028237;28;19904;-71
2022/05/06 02:34:52;;;;;;;;;;;17.10;57.30;;;;;;2028592;28;20351;-71
2022/05/06 02:35:54;;;;;;;;;;;17.20;57.30;;;;;;2028360;28;20327;-71
2022/05/06 02:36:52;;;;;;;;;;;17.20;57.40;;;;;;2027984;28;19920;-71
2022/05/06 02:37:51;;;;;;;;;;;17.20;57.30;;;;;;2028551;28;19904;-70
2022/05/06 02:38:49;;;;;;;;;;;17.20;57.20;;;;;;2037158;28;19904;-70
2022/05/06 02:39:48;;;;;;;;;;;17.20;57.30;;;;;;2037138;28;19995;-71
2022/05/06 02:40:47;;;;;;;;;;;17.20;57.30;;;;;;2036314;28;19904;-71
2022/05/06 02:41:45;;;;;;;;;;;17.20;57.20;;;;;;2036678;28;20291;-71
2022/05/06 02:42:43;;;;;;;;;;;17.20;57.20;;;;;;2037241;28;20343;-70
2022/05/06 02:43:42;;;;;;;;;;;17.10;57.20;;;;;;2037210;28;19951;-70
2022/05/06 02:44:41;;;;;;;;;;;17.20;57.30;;;;;;2037129;28;19904;-72
2022/05/06 02:45:39;;;;;;;;;;;17.20;57.30;;;;;;2037112;28;19904;-71
2022/05/06 02:46:38;;;;;;;;;;;17.20;57.30;;;;;;2037163;28;19912;-70
2022/05/06 02:47:38;;;;;;;;;;;17.20;57.30;;;;;;2037021;28;20309;-72
2022/05/06 02:48:36;;;;;;;;;;;17.20;57.30;;;;;;2037112;28;19915;-70
2022/05/06 02:49:34;;;;;;;;;;;17.20;57.40;;;;;;2037198;28;20382;-70
2022/05/06 02:50:33;;;;;;;;;;;17.20;57.30;;;;;;2037074;28;19944;-70
2022/05/06 02:51:32;;;;;;;;;;;17.20;57.30;;;;;;2036944;28;19925;-71
2022/05/06 02:52:30;;;;;;;;;;;17.20;57.40;;;;;;2037105;28;19923;-71
2022/05/06 02:53:28;;;;;;;;;;;17.20;57.30;;;;;;2037134;28;19904;-71
2022/05/06 02:54:29;;;;;;;;;;;17.20;57.30;;;;;;2037217;28;19904;-72
2022/05/06 02:55:28;;;;;;;;;;;17.20;57.30;;;;;;2037038;28;20247;-71
2022/05/06 02:56:26;;;;;;;;;;;17.20;57.30;;;;;;2037157;28;19958;-70
2022/05/06 02:57:24;;;;;;;;;;;17.20;57.30;;;;;;2036384;28;19923;-70
2022/05/06 02:58:23;;;;;;;;;;;17.10;57.30;;;;;;2028421;28;19916;-70
2022/05/06 02:59:22;;;;;;;;;;;17.20;57.30;;;;;;2035935;28;20351;-70
2022/05/06 03:00:20;;;;;;;;;;;17.20;57.30;;;;;;2037164;28;19904;-71
2022/05/06 03:01:19;;;;;;;;;;;17.20;57.30;;;;;;2036967;28;20252;-71
2022/05/06 03:02:17;;;;;;;;;;;17.20;57.30;;;;;;2037041;28;19904;-71
2022/05/06 03:03:15;;;;;;;;;;;17.20;57.30;;;;;;2036869;28;20275;-71
2022/05/06 03:04:14;;;;;;;;;;;17.20;57.30;;;;;;2036995;28;19907;-71
2022/05/06 03:05:13;;;;;;;;;;;17.20;57.30;;;;;;2037030;28;19948;-72
2022/05/06 03:06:11;;;;;;;;;;;17.20;57.30;;;;;;2037123;28;19908;-71
2022/05/06 03:07:11;;;;;;;;;;;17.10;57.20;;;;;;2037028;28;20312;-70
2022/05/06 03:08:09;;;;;;;;;;;17.20;57.30;;;;;;2036765;28;19916;-71
2022/05/06 03:09:08;;;;;;;;;;;17.10;57.20;;;;;;2036999;28;19947;-71
2022/05/06 03:10:06;;;;;;;;;;;17.10;57.20;;;;;;2036849;28;20277;-70
2022/05/06 03:11:05;;;;;;;;;;;17.10;57.20;;;;;;2036952;28;19904;-70
2022/05/06 03:12:03;;;;;;;;;;;17.20;57.40;;;;;;2036935;28;19908;-70
2022/05/06 03:13:02;;;;;;;;;;;17.20;57.30;;;;;;2036870;28;19908;-71
2022/05/06 03:14:00;;;;;;;;;;;17.20;57.40;;;;;;2036980;28;19941;-71
2022/05/06 03:14:59;;;;;;;;;;;17.20;57.30;;;;;;2036146;28;19911;-71
2022/05/06 03:15:57;;;;;;;;;;;17.10;57.30;;;;;;2036398;28;19969;-71
2022/05/06 03:16:55;;;;;;;;;;;17.20;57.40;;;;;;2036764;28;19915;-70
2022/05/06 03:17:56;;;;;;;;;;;17.10;57.30;;;;;;2037157;28;19904;-71
2022/05/06 03:18:54;;;;;;;;;;;17.10;57.20;;;;;;2036204;28;19907;-71
2022/05/06 03:19:52;;;;;;;;;;;17.10;57.30;;;;;;2036338;28;19904;-71
2022/05/06 03:20:51;;;;;;;;;;;17.10;57.30;;;;;;2036901;28;19904;-70
2022/05/06 03:21:51;;;;;;;;;;;17.10;57.90;;;;;;2036298;28;19904;-70
2022/05/06 03:22:50;;;;;;;;;;;17.20;57.40;;;;;;2036246;28;20279;-70
2022/05/06 03:23:50;;;;;;;;;;;17.10;57.30;;;;;;2036998;28;19908;-70
2022/05/06 03:24:49;;;;;;;;;;;17.10;57.30;;;;;;2036932;28;20347;-70
2022/05/06 03:25:47;;;;;;;;;;;17.10;57.30;;;;;;2036980;28;19908;-70
2022/05/06 03:26:46;;;;;;;;;;;17.20;57.40;;;;;;2037008;28;20093;-71
2022/05/06 03:27:59;;;;;;;;;;;17.20;57.40;;;;;;2036913;28;20003;-71
2022/05/06 03:28:57;;;;;;;;;;;17.20;57.40;;;;;;2036089;28;19912;-72
2022/05/06 03:29:56;;;;;;;;;;;17.20;57.40;;;;;;2036308;28;20324;-71
2022/05/06 03:30:55;;;;;;;;;;;17.10;57.30;;;;;;2036080;28;19904;-70
2022/05/06 03:31:53;;;;;;;;;;;17.10;57.30;;;;;;2036241;28;19942;-70
2022/05/06 03:32:55;;;;;;;;;;;17.10;57.30;;;;;;2028224;28;20272;-71
2022/05/06 03:33:55;;;;;;;;;;;17.10;57.40;;;;;;2027934;28;20042;-71
2022/05/06 03:34:53;;;;;;;;;;;17.10;57.40;;;;;;2036515;28;20256;-71
2022/05/06 03:35:51;;;;;;;;;;;17.20;57.40;;;;;;2037129;28;19911;-71
2022/05/06 03:36:50;;;;;;;;;;;17.10;57.40;;;;;;2035956;28;19904;-71
2022/05/06 03:37:49;;;;;;;;;;;17.10;57.30;;;;;;2036351;28;20007;-71
2022/05/06 03:38:47;;;;;;;;;;;17.10;57.30;;;;;;2036875;28;20271;-71
2022/05/06 03:39:45;;;;;;;;;;;17.10;57.30;;;;;;2036832;28;19916;-71
2022/05/06 03:40:44;;;;;;;;;;;17.20;57.40;;;;;;2036722;28;20305;-71
2022/05/06 03:41:42;;;;;;;;;;;17.10;57.40;;;;;;2037677;28;19904;-71
2022/05/06 03:42:41;;;;;;;;;;;17.10;57.40;;;;;;2038777;28;20347;-71
2022/05/06 03:43:40;;;;;;;;;;;17.20;57.40;;;;;;2038415;28;19919;-71
2022/05/06 03:44:39;;;;;;;;;;;17.10;57.40;;;;;;2038460;28;19911;-71
2022/05/06 03:45:39;;;;;;;;;;;17.10;57.40;;;;;;2038389;28;20344;-71
2022/05/06 03:46:37;;;;;;;;;;;17.10;57.40;;;;;;2038445;28;19915;-71
2022/05/06 03:47:36;;;;;;;;;;;17.10;57.40;;;;;;2038517;28;20334;-71
2022/05/06 03:48:34;;;;;;;;;;;17.10;57.40;;;;;;2038471;28;20002;-70
2022/05/06 03:49:33;;;;;;;;;;;17.10;57.40;;;;;;2038526;28;19907;-70
2022/05/06 03:51:49;;;;;;;;;;;17.20;57.40;;;;;;2038706;28;19903;-71
2022/05/06 03:52:51;;;;;;;;;;;17.10;57.40;;;;;;2038427;28;20358;-70
2022/05/06 03:53:52;;;;;;;;;;;17.10;57.40;;;;;;2038323;28;20224;-71
2022/05/06 03:54:52;;;;;;;;;;;17.10;57.40;;;;;;2038587;28;20339;-70
2022/05/06 03:55:50;;;;;;;;;;;17.10;57.40;;;;;;2038270;28;19954;-70
2022/05/06 03:56:49;;;;;;;;;;;17.10;57.50;;;;;;2038065;28;19904;-70
2022/05/06 03:57:47;;;;;;;;;;;17.10;57.40;;;;;;2038348;28;19908;-70
2022/05/06 03:58:46;;;;;;;;;;;17.10;57.40;;;;;;2038291;28;19908;-71
2022/05/06 03:59:44;;;;;;;;;;;17.10;57.40;;;;;;2038495;28;20320;-71
2022/05/06 04:00:45;;;;;;;;;;;17.10;57.40;;;;;;2038683;28;20366;-71
2022/05/06 04:01:43;;;;;;;;;;;17.10;57.50;;;;;;2038584;28;20347;-71
2022/05/06 04:02:42;;;;;;;;;;;17.10;57.50;;;;;;2045766;28;19908;-70
2022/05/06 04:03:41;;;;;;;;;;;17.10;57.50;;;;;;2045814;28;20298;-71
2022/05/06 04:04:39;;;;;;;;;;;17.10;58.10;;;;;;2038947;28;19904;-71
2022/05/06 04:05:38;;;;;;;;;;;17.10;57.50;;;;;;2038453;28;19951;-72
2022/05/06 04:06:36;;;;;;;;;;;17.10;57.40;;;;;;2038449;28;20347;-71
2022/05/06 04:07:34;;;;;;;;;;;17.10;57.40;;;;;;2038332;28;19979;-72
2022/05/06 04:08:33;;;;;;;;;;;17.10;57.40;;;;;;2038556;28;19900;-69
2022/05/06 04:09:32;;;;;;;;;;;17.10;57.50;;;;;;2038561;28;19990;-70
2022/05/06 04:10:30;;;;;;;;;;;17.10;57.40;;;;;;2038318;28;19904;-71
2022/05/06 04:11:29;;;;;;;;;;;17.10;57.40;;;;;;2038578;28;19904;-71
2022/05/06 04:12:28;;;;;;;;;;;17.10;57.40;;;;;;2038562;28;19936;-71
2022/05/06 04:13:26;;;;;;;;;;;17.10;57.40;;;;;;2039039;28;20255;-71
2022/05/06 04:14:25;;;;;;;;;;;17.10;57.40;;;;;;2038825;28;19911;-72
2022/05/06 04:15:24;;;;;;;;;;;17.10;57.40;;;;;;2046077;28;20397;-71
2022/05/06 04:16:24;;;;;;;;;;;17.10;57.40;;;;;;2046194;28;19904;-71
2022/05/06 04:17:22;;;;;;;;;;;17.10;57.40;;;;;;2038731;28;20318;-71
2022/05/06 04:18:21;;;;;;;;;;;17.10;57.40;;;;;;2039141;28;19904;-71
2022/05/06 04:19:19;;;;;;;;;;;17.10;57.40;;;;;;2038289;28;19904;-71
2022/05/06 04:24:11;;;;;;;;;;;17.00;57.40;;;;;;2038755;28;19962;-69
2022/05/06 04:25:09;;;;;;;;;;;17.10;57.50;;;;;;2038472;28;19909;-72
2022/05/06 04:26:11;;;;;;;;;;;17.10;57.50;;;;;;2037404;28;19904;-71
2022/05/06 04:27:09;;;;;;;;;;;17.10;57.50;;;;;;2038559;28;19915;-70
2022/05/06 04:28:08;;;;;;;;;;;17.10;57.40;;;;;;2037941;28;20003;-70
2022/05/06 04:29:06;;;;;;;;;;;17.10;57.40;;;;;;2037588;28;20363;-71
2022/05/06 04:30:05;;;;;;;;;;;17.10;57.40;;;;;;2040090;28;20017;-70
2022/05/06 04:31:04;;;;;;;;;;;17.10;57.40;;;;;;2038808;28;19939;-70
2022/05/06 04:32:02;;;;;;;;;;;17.10;57.40;;;;;;2040088;28;19904;-70
2022/05/06 04:33:01;;;;;;;;;;;17.10;57.50;;;;;;2039498;28;19954;-70
2022/05/06 04:33:59;;;;;;;;;;;17.10;57.50;;;;;;2037949;28;19958;-71
2022/05/06 04:35:00;;;;;;;;;;;17.10;57.50;;;;;;2037830;28;19911;-71
2022/05/06 04:35:59;;;;;;;;;;;17.10;57.50;;;;;;2038368;28;19935;-71
2022/05/06 04:36:59;;;;;;;;;;;17.10;57.50;;;;;;2039044;28;19904;-70
2022/05/06 04:37:57;;;;;;;;;;;17.10;57.50;;;;;;2038135;28;20243;-71
2022/05/06 04:38:55;;;;;;;;;;;17.10;57.40;;;;;;2038113;28;19908;-71
2022/05/06 04:39:54;;;;;;;;;;;17.10;57.40;;;;;;2038854;28;19970;-70
2022/05/06 04:40:58;;;;;;;;;;;17.10;57.40;;;;;;2037546;28;19906;-71
2022/05/06 04:41:58;;;;;;;;;;;17.10;57.40;;;;;;2037783;28;20405;-71
2022/05/06 04:42:56;;;;;;;;;;;17.10;57.40;;;;;;2038157;28;19914;-70
2022/05/06 04:43:55;;;;;;;;;;;17.10;57.40;;;;;;2038425;28;19911;-70
2022/05/06 04:44:53;;;;;;;;;;;17.10;57.40;;;;;;2038326;28;19947;-70
2022/05/06 04:45:52;;;;;;;;;;;17.10;57.40;;;;;;2038143;28;19904;-70
2022/05/06 04:46:52;;;;;;;;;;;17.10;57.50;;;;;;2038079;28;20006;-71
2022/05/06 04:47:51;;;;;;;;;;;17.10;57.40;;;;;;2038092;28;20298;-71
2022/05/06 04:48:49;;;;;;;;;;;17.10;57.40;;;;;;2038243;28;19919;-71
2022/05/06 04:49:48;;;;;;;;;;;17.10;57.40;;;;;;2038292;28;19908;-71
2022/05/06 04:50:46;;;;;;;;;;;17.10;57.50;;;;;;2038367;28;19963;-70
2022/05/06 04:51:45;;;;;;;;;;;17.10;57.40;;;;;;2038388;28;19904;-70
2022/05/06 04:52:43;;;;;;;;;;;17.10;57.50;;;;;;2038133;28;19911;-70
2022/05/06 04:53:42;;;;;;;;;;;17.30;57.60;;;;;;2037453;28;19954;-72
2022/05/06 04:54:41;;;;;;;;;;;17.10;57.40;;;;;;2038261;28;19911;-70
2022/05/06 04:55:43;;;;;;;;;;;17.10;57.40;;;;;;2037483;28;19911;-70
2022/05/06 04:56:42;;;;;;;;;;;17.10;57.40;;;;;;2037474;28;20029;-71
2022/05/06 04:57:41;;;;;;;;;;;17.10;57.40;;;;;;2038034;28;19908;-70
2022/05/06 04:58:41;;;;;;;;;;;17.10;57.50;;;;;;2037944;28;19904;-70
2022/05/06 04:59:40;;;;;;;;;;;17.10;57.50;;;;;;2037702;28;19904;-70
2022/05/06 05:00:40;;;;;;;;;;;17.10;57.50;;;;;;2037375;28;20007;-71
2022/05/06 05:01:39;;;;;;;;;;;17.10;57.40;;;;;;2037987;28;19919;-70
2022/05/06 05:02:37;;;;;;;;;;;17.10;57.40;;;;;;2038297;28;19926;-72
2022/05/06 05:03:36;;;;;;;;;;;17.10;57.40;;;;;;2038138;28;20371;-72
2022/05/06 05:04:34;;;;;;;;;;;17.10;57.40;;;;;;2038288;28;19939;-70
2022/05/06 05:05:33;;;;;;;;;;;17.10;57.40;;;;;;2038363;28;19904;-71
2022/05/06 05:06:33;;;;;;;;;;;17.10;57.40;;;;;;2038030;28;19904;-71
2022/05/06 05:07:31;;;;;;;;;;;17.10;57.40;;;;;;2038202;28;20267;-70
2022/05/06 05:08:29;;;;;;;;;;;17.10;57.40;;;;;;2038460;28;19911;-71
2022/05/06 05:09:29;;;;;;;;;;;17.10;57.40;;;;;;2038614;28;20071;-71
2022/05/06 05:10:27;;;;;;;;;;;17.10;57.40;;;;;;2038602;28;19904;-71
2022/05/06 05:11:26;;;;;;;;;;;17.10;57.40;;;;;;2038268;28;20002;-71
2022/05/06 05:12:24;;;;;;;;;;;17.10;57.40;;;;;;2038062;28;19949;-71
2022/05/06 05:13:26;;;;;;;;;;;17.10;57.40;;;;;;2037413;28;19904;-72
2022/05/06 05:14:24;;;;;;;;;;;17.10;57.40;;;;;;2038059;28;19968;-72
2022/05/06 05:15:22;;;;;;;;;;;17.10;57.50;;;;;;2038048;28;19954;-71
2022/05/06 05:16:21;;;;;;;;;;;17.10;57.40;;;;;;2038405;28;19935;-71
2022/05/06 05:17:19;;;;;;;;;;;17.10;57.50;;;;;;2038114;28;20343;-70
2022/05/06 05:18:20;;;;;;;;;;;17.10;57.40;;;;;;2038066;28;19908;-70
2022/05/06 05:19:18;;;;;;;;;;;17.10;57.40;;;;;;2037472;28;19911;-71
2022/05/06 05:20:17;;;;;;;;;;;17.10;57.40;;;;;;2037487;28;20394;-71
2022/05/06 05:21:15;;;;;;;;;;;17.10;57.40;;;;;;2036653;28;19908;-70
2022/05/06 05:22:13;;;;;;;;;;;17.20;57.40;;;;;;2037562;28;19904;-71
2022/05/06 05:23:13;;;;;;;;;;;17.20;57.40;;;;;;2038224;28;20370;-71
2022/05/06 05:24:12;;;;;;;;;;;17.10;57.40;;;;;;2038738;28;19908;-70
2022/05/06 05:25:10;;;;;;;;;;;17.10;57.40;;;;;;2039001;28;19904;-71
2022/05/06 05:26:09;;;;;;;;;;;17.10;57.40;;;;;;2038130;28;19990;-71
2022/05/06 05:27:08;;;;;;;;;;;17.10;57.40;;;;;;2038481;28;20312;-71
2022/05/06 05:28:09;;;;;;;;;;;17.20;57.50;;;;;;2038498;28;19915;-71
2022/05/06 05:29:07;;;;;;;;;;;17.10;57.40;;;;;;2038461;28;19904;-71
2022/05/06 05:30:07;;;;;;;;;;;17.10;57.30;;;;;;2038293;28;20365;-71
2022/05/06 05:31:05;;;;;;;;;;;17.10;57.30;;;;;;2038628;28;20235;-71
2022/05/06 05:32:04;;;;;;;;;;;17.10;57.30;;;;;;2038582;28;19904;-71
2022/05/06 05:33:04;;;;;;;;;;;17.10;57.40;;;;;;2038149;28;19975;-71
2022/05/06 05:34:03;;;;;;;;;;;17.10;57.30;;;;;;2038288;28;19911;-71
2022/05/06 05:35:01;;;;;;;;;;;17.20;57.40;;;;;;2038230;28;19912;-71
2022/05/06 05:36:00;;;;;;;;;;;17.20;57.40;;;;;;2038243;28;19977;-71
2022/05/06 05:36:58;;;;;;;;;;;17.10;57.40;;;;;;2038255;28;19904;-71
2022/05/06 05:37:57;;;;;;;;;;;17.10;57.30;;;;;;2038360;28;19905;-71
2022/05/06 05:38:55;;;;;;;;;;;17.10;57.40;;;;;;2045974;28;19911;-70
2022/05/06 05:39:54;;;;;;;;;;;17.20;57.40;;;;;;2046113;28;19903;-71
2022/05/06 05:40:52;;;;;;;;;;;17.10;57.30;;;;;;2039542;28;19903;-70
2022/05/06 05:41:50;;;;;;;;;;;17.20;57.40;;;;;;2038619;28;19957;-70
2022/05/06 05:42:49;;;;;;;;;;;17.10;57.40;;;;;;2038344;28;19904;-71
2022/05/06 05:48:57;;;;;;;;;;;17.20;57.40;;;;;;2038089;28;19908;-71
2022/05/06 05:49:55;;;;;;;;;;;17.20;57.40;;;;;;2037597;28;19904;-71
2022/05/06 05:50:54;;;;;;;;;;;17.20;57.40;;;;;;2037950;28;19908;-71
2022/05/06 05:51:54;;;;;;;;;;;17.20;57.30;;;;;;2037998;28;20189;-71
2022/05/06 05:52:53;;;;;;;;;;;17.20;57.40;;;;;;2038010;28;20271;-71
2022/05/06 05:53:54;;;;;;;;;;;17.20;57.40;;;;;;2037942;28;20049;-71
2022/05/06 05:54:53;;;;;;;;;;;17.20;57.30;;;;;;2037886;28;20406;-71
2022/05/06 05:55:52;;;;;;;;;;;17.20;57.40;;;;;;2037736;28;19904;-70
2022/05/06 05:56:50;;;;;;;;;;;17.20;57.30;;;;;;2045127;28;19919;-70
2022/05/06 05:57:48;;;;;;;;;;;17.20;57.40;;;;;;2045472;28;19921;-71
2022/05/06 05:58:49;;;;;;;;;;;17.20;57.40;;;;;;2038314;28;19904;-71
2022/05/06 05:59:48;;;;;;;;;;;17.20;57.30;;;;;;2037858;28;19904;-71